sensor_id;sensor_type;location;lat;lon;timestamp;pressure;altitude;pressure_sealevel;temperature;humidity
9189;BME280;34313;50.780;6.084;2023-01-31T00:00:39;100466.56;;;3.22;100.00
9189;BME280;34313;50.780;6.084;2023-01-31T00:03:04;100471.09;;;3.08;100.00
9189;BME280;34313;50.780;6.084;2023-01-31T00:05:30;100478.06;;;3.08;100.00
9189;BME280;34313;50.780;6.084;2023-01-31T00:07:55;100469.56;;;2.93;100.00
9189;BME280;34313;50.780;6.084;2023-01-31T00:10:21;100467.84;;;2.89;100.00
9189;BME280;34313;50.780;6.084;2023-01-31T00:12:46;100467.94;;;2.81;100.00
9189;BME280;34313;50.780;6.084;2023-01-31T00:15:11;100464.47;;;2.82;100.00
9189;BME280;34313;50.780;6.084;2023-01-31T00:17:40;100461.06;;;2.76;100.00
9189;BME280;34313;50.780;6.084;2023-01-31T00:20:06;100458.56;;;2.67;100.00
9189;BME280;34313;50.780;6.084;2023-01-31T00:22:32;100481.16;;;2.63;100.00
9189;BME280;34313;50.780;6.084;2023-01-31T00:24:58;100470.72;;;2.64;100.00
9189;BME280;34313;50.780;6.084;2023-01-31T00:27:23;100463.94;;;2.51;100.00
9189;BME280;34313;50.780;6.084;2023-01-31T00:29:48;100472.53;;;2.58;100.00
9189;BME280;34313;50.780;6.084;2023-01-31T00:32:14;100466.50;;;2.53;100.00
9189;BME280;34313;50.780;6.084;2023-01-31T00:34:39;100470.81;;;2.54;100.00
9189;BME280;34313;50.780;6.084;2023-01-31T00:37:04;100466.56;;;2.43;100.00
9189;BME280;34313;50.780;6.084;2023-01-31T00:39:29;100470.91;;;2.44;100.00
9189;BME280;34313;50.780;6.084;2023-01-31T00:41:55;100463.97;;;2.46;100.00
9189;BME280;34313;50.780;6.084;2023-01-31T00:44:20;100460.41;;;2.54;100.00
9189;BME280;34313;50.780;6.084;2023-01-31T00:46:45;100472.50;;;2.59;100.00
9189;BME280;34313;50.780;6.084;2023-01-31T00:49:11;100469.00;;;2.63;100.00
9189;BME280;34313;50.780;6.084;2023-01-31T00:51:37;100469.03;;;2.60;100.00
9189;BME280;34313;50.780;6.084;2023-01-31T00:54:02;100461.94;;;2.73;100.00
9189;BME280;34313;50.780;6.084;2023-01-31T00:56:27;100472.22;;;2.87;100.00
9189;BME280;34313;50.780;6.084;2023-01-31T00:58:53;100462.56;;;2.97;100.00
9189;BME280;34313;50.780;6.084;2023-01-31T01:01:27;100462.47;;;3.05;100.00
9189;BME280;34313;50.780;6.084;2023-01-31T01:03:54;100458.97;;;3.09;100.00
9189;BME280;34313;50.780;6.084;2023-01-31T01:06:20;100453.66;;;3.13;100.00
9189;BME280;34313;50.780;6.084;2023-01-31T01:08:46;100456.16;;;3.22;100.00
9189;BME280;34313;50.780;6.084;2023-01-31T01:11:17;100464.84;;;3.23;100.00
9189;BME280;34313;50.780;6.084;2023-01-31T01:13:44;100464.84;;;3.23;100.00
9189;BME280;34313;50.780;6.084;2023-01-31T01:16:20;100473.56;;;3.19;100.00
9189;BME280;34313;50.780;6.084;2023-01-31T01:18:46;100470.13;;;3.15;100.00
9189;BME280;34313;50.780;6.084;2023-01-31T01:21:32;100462.44;;;3.06;100.00
9189;BME280;34313;50.780;6.084;2023-01-31T01:24:04;100465.09;;;3.01;100.00
9189;BME280;34313;50.780;6.084;2023-01-31T01:26:31;100462.59;;;2.92;100.00
9189;BME280;34313;50.780;6.084;2023-01-31T01:28:58;100462.72;;;2.83;100.00
9189;BME280;34313;50.780;6.084;2023-01-31T01:31:24;100465.44;;;2.74;100.00
9189;BME280;34313;50.780;6.084;2023-01-31T01:34:13;100458.59;;;2.63;100.00
9189;BME280;34313;50.780;6.084;2023-01-31T01:36:39;100456.84;;;2.62;100.00
9189;BME280;34313;50.780;6.084;2023-01-31T01:39:06;100470.88;;;2.49;100.00
9189;BME280;34313;50.780;6.084;2023-01-31T01:41:34;100468.31;;;2.44;100.00
9189;BME280;34313;50.780;6.084;2023-01-31T01:44:01;100471.84;;;2.39;100.00
9189;BME280;34313;50.780;6.084;2023-01-31T01:46:41;100470.94;;;2.40;100.00
9189;BME280;34313;50.780;6.084;2023-01-31T01:51:48;100463.00;;;2.55;100.00
9189;BME280;34313;50.780;6.084;2023-01-31T01:54:19;100464.63;;;2.67;100.00
9189;BME280;34313;50.780;6.084;2023-01-31T01:56:48;100455.84;;;2.79;100.00
9189;BME280;34313;50.780;6.084;2023-01-31T01:59:19;100460.94;;;2.87;100.00
9189;BME280;34313;50.780;6.084;2023-01-31T02:01:46;100461.72;;;2.96;100.00
9189;BME280;34313;50.780;6.084;2023-01-31T02:04:17;100452.16;;;2.97;100.00
9189;BME280;34313;50.780;6.084;2023-01-31T02:06:44;100446.97;;;2.92;100.00
9189;BME280;34313;50.780;6.084;2023-01-31T02:09:19;100439.06;;;3.01;100.00
9189;BME280;34313;50.780;6.084;2023-01-31T02:11:47;100434.94;;;2.82;100.00
9189;BME280;34313;50.780;6.084;2023-01-31T02:14:13;100439.13;;;2.98;100.00
9189;BME280;34313;50.780;6.084;2023-01-31T02:16:39;100437.31;;;3.05;100.00
9189;BME280;34313;50.780;6.084;2023-01-31T02:19:32;100439.03;;;3.05;100.00
9189;BME280;34313;50.780;6.084;2023-01-31T02:33:48;100434.91;;;2.85;100.00
9189;BME280;34313;50.780;6.084;2023-01-31T02:36:44;100428.09;;;2.73;100.00
9189;BME280;34313;50.780;6.084;2023-01-31T02:39:28;100435.97;;;2.70;100.00
9189;BME280;34313;50.780;6.084;2023-01-31T02:45:27;100433.31;;;2.72;100.00
9189;BME280;34313;50.780;6.084;2023-01-31T02:53:31;100415.19;;;2.65;100.00
9189;BME280;34313;50.780;6.084;2023-01-31T02:56:05;100423.81;;;2.69;100.00
9189;BME280;34313;50.780;6.084;2023-01-31T03:01:31;100434.19;;;2.74;100.00
9189;BME280;34313;50.780;6.084;2023-01-31T03:03:58;100428.13;;;2.72;100.00
9189;BME280;34313;50.780;6.084;2023-01-31T03:08:52;100442.84;;;2.76;100.00
9189;BME280;34313;50.780;6.084;2023-01-31T03:11:26;100432.25;;;2.91;100.00
9189;BME280;34313;50.780;6.084;2023-01-31T03:22:45;100419.09;;;3.02;100.00
9189;BME280;34313;50.780;6.084;2023-01-31T03:25:14;100416.53;;;2.97;100.00
9189;BME280;34313;50.780;6.084;2023-01-31T03:27:44;100417.47;;;2.93;100.00
9189;BME280;34313;50.780;6.084;2023-01-31T03:30:20;100411.38;;;2.94;100.00
9189;BME280;34313;50.780;6.084;2023-01-31T03:32:55;100418.31;;;2.94;100.00
9189;BME280;34313;50.780;6.084;2023-01-31T03:35:25;100411.38;;;2.93;100.00
9189;BME280;34313;50.780;6.084;2023-01-31T03:38:23;100411.50;;;2.82;100.00
9189;BME280;34313;50.780;6.084;2023-01-31T03:40:56;100412.38;;;2.84;100.00
9189;BME280;34313;50.780;6.084;2023-01-31T03:43:29;100403.78;;;2.77;100.00
9189;BME280;34313;50.780;6.084;2023-01-31T03:46:06;100406.38;;;2.77;100.00
9189;BME280;34313;50.780;6.084;2023-01-31T03:48:37;100402.97;;;2.71;100.00
9189;BME280;34313;50.780;6.084;2023-01-31T03:51:07;100405.53;;;2.75;100.00
9189;BME280;34313;50.780;6.084;2023-01-31T03:53:40;100407.25;;;2.76;100.00
9189;BME280;34313;50.780;6.084;2023-01-31T03:56:20;100407.13;;;2.87;100.00
9189;BME280;34313;50.780;6.084;2023-01-31T03:58:53;100409.69;;;2.92;100.00
9189;BME280;34313;50.780;6.084;2023-01-31T04:01:22;100407.03;;;2.96;100.00
9189;BME280;34313;50.780;6.084;2023-01-31T04:03:56;100397.34;;;3.06;100.00
9189;BME280;34313;50.780;6.084;2023-01-31T04:06:23;100400.72;;;3.14;100.00
9189;BME280;34313;50.780;6.084;2023-01-31T04:08:49;100400.56;;;3.25;100.00
9189;BME280;34313;50.780;6.084;2023-01-31T04:11:19;100395.22;;;3.34;100.00
9189;BME280;34313;50.780;6.084;2023-01-31T04:13:45;100387.41;;;3.33;100.00
9189;BME280;34313;50.780;6.084;2023-01-31T04:16:10;100394.34;;;3.35;100.00
9189;BME280;34313;50.780;6.084;2023-01-31T04:18:36;100390.03;;;3.31;100.00
9189;BME280;34313;50.780;6.084;2023-01-31T04:21:01;100393.56;;;3.29;100.00
9189;BME280;34313;50.780;6.084;2023-01-31T04:23:26;100384.00;;;3.28;100.00
9189;BME280;34313;50.780;6.084;2023-01-31T04:25:53;100382.38;;;3.20;100.00
9189;BME280;34313;50.780;6.084;2023-01-31T04:28:21;100386.75;;;3.18;100.00
9189;BME280;34313;50.780;6.084;2023-01-31T04:30:51;100396.31;;;3.18;100.00
9189;BME280;34313;50.780;6.084;2023-01-31T04:33:17;100387.69;;;3.13;100.00
9189;BME280;34313;50.780;6.084;2023-01-31T04:35:42;100389.53;;;3.06;100.00
9189;BME280;34313;50.780;6.084;2023-01-31T04:38:07;100384.31;;;3.05;100.00
9189;BME280;34313;50.780;6.084;2023-01-31T04:40:33;100380.03;;;3.03;100.00
9189;BME280;34313;50.780;6.084;2023-01-31T04:42:58;100384.47;;;2.95;100.00
9189;BME280;34313;50.780;6.084;2023-01-31T04:45:23;100380.09;;;2.97;100.00
9189;BME280;34313;50.780;6.084;2023-01-31T04:47:49;100382.69;;;2.97;100.00
9189;BME280;34313;50.780;6.084;2023-01-31T04:50:15;100375.78;;;2.96;100.00
9189;BME280;34313;50.780;6.084;2023-01-31T04:52:40;100380.06;;;3.00;100.00
9189;BME280;34313;50.780;6.084;2023-01-31T04:55:06;100385.16;;;3.07;100.00
9189;BME280;34313;50.780;6.084;2023-01-31T04:57:31;100375.66;;;3.04;100.00
9189;BME280;34313;50.780;6.084;2023-01-31T04:59:57;100391.25;;;3.09;100.00
9189;BME280;34313;50.780;6.084;2023-01-31T05:02:22;100387.88;;;2.99;100.00
9189;BME280;34313;50.780;6.084;2023-01-31T05:04:48;100382.75;;;2.93;100.00
9189;BME280;34313;50.780;6.084;2023-01-31T05:07:13;100386.22;;;2.93;100.00
9189;BME280;34313;50.780;6.084;2023-01-31T05:09:38;100381.06;;;2.90;100.00
9189;BME280;34313;50.780;6.084;2023-01-31T05:12:06;100388.84;;;2.92;100.00
9189;BME280;34313;50.780;6.084;2023-01-31T05:14:32;100383.69;;;2.87;100.00
9189;BME280;34313;50.780;6.084;2023-01-31T05:16:57;100368.16;;;2.81;100.00
9189;BME280;34313;50.780;6.084;2023-01-31T05:19:23;100367.31;;;2.79;100.00
9189;BME280;34313;50.780;6.084;2023-01-31T05:21:48;100363.81;;;2.80;100.00
9189;BME280;34313;50.780;6.084;2023-01-31T05:24:24;100356.94;;;2.76;100.00
9189;BME280;34313;50.780;6.084;2023-01-31T05:26:50;100359.53;;;2.76;100.00
9189;BME280;34313;50.780;6.084;2023-01-31T05:29:18;100364.78;;;2.71;100.00
9189;BME280;34313;50.780;6.084;2023-01-31T05:31:43;100358.72;;;2.72;100.00
9189;BME280;34313;50.780;6.084;2023-01-31T05:34:09;100352.63;;;2.72;100.00
9189;BME280;34313;50.780;6.084;2023-01-31T05:36:36;100337.13;;;2.64;100.00
9189;BME280;34313;50.780;6.084;2023-01-31T05:39:01;100348.44;;;2.63;100.00
9189;BME280;34313;50.780;6.084;2023-01-31T05:41:26;100350.13;;;2.65;100.00
9189;BME280;34313;50.780;6.084;2023-01-31T05:43:52;100350.19;;;2.59;100.00
9189;BME280;34313;50.780;6.084;2023-01-31T05:46:17;100339.72;;;2.64;100.00
9189;BME280;34313;50.780;6.084;2023-01-31T05:48:42;100340.56;;;2.66;100.00
9189;BME280;34313;50.780;6.084;2023-01-31T05:51:08;100346.66;;;2.67;100.00
9189;BME280;34313;50.780;6.084;2023-01-31T05:53:33;100343.16;;;2.68;100.00
9189;BME280;34313;50.780;6.084;2023-01-31T05:55:58;100342.22;;;2.72;100.00
9189;BME280;34313;50.780;6.084;2023-01-31T05:58:23;100332.72;;;2.69;100.00
9189;BME280;34313;50.780;6.084;2023-01-31T06:00:49;100327.59;;;2.63;100.00
9189;BME280;34313;50.780;6.084;2023-01-31T06:03:14;100327.50;;;2.69;100.00
9189;BME280;34313;50.780;6.084;2023-01-31T06:05:40;100326.66;;;2.70;100.00
9189;BME280;34313;50.780;6.084;2023-01-31T06:08:05;100300.66;;;2.65;100.00
9189;BME280;34313;50.780;6.084;2023-01-31T06:10:31;100303.28;;;2.65;100.00
9189;BME280;34313;50.780;6.084;2023-01-31T06:12:58;100304.94;;;2.68;100.00
9189;BME280;34313;50.780;6.084;2023-01-31T06:15:23;100303.28;;;2.62;100.00
9189;BME280;34313;50.780;6.084;2023-01-31T06:17:48;100303.25;;;2.69;100.00
9189;BME280;34313;50.780;6.084;2023-01-31T06:20:14;100309.28;;;2.69;100.00
9189;BME280;34313;50.780;6.084;2023-01-31T06:22:40;100316.13;;;2.78;100.00
9189;BME280;34313;50.780;6.084;2023-01-31T06:25:05;100324.78;;;2.78;100.00
9189;BME280;34313;50.780;6.084;2023-01-31T06:27:32;100325.59;;;2.82;100.00
9189;BME280;34313;50.780;6.084;2023-01-31T06:29:58;100329.13;;;2.79;100.00
9189;BME280;34313;50.780;6.084;2023-01-31T06:32:23;100334.34;;;2.78;100.00
9189;BME280;34313;50.780;6.084;2023-01-31T06:34:48;100322.25;;;2.74;100.00
9189;BME280;34313;50.780;6.084;2023-01-31T06:37:14;100320.50;;;2.76;100.00
9189;BME280;34313;50.780;6.084;2023-01-31T06:39:39;100323.09;;;2.76;100.00
9189;BME280;34313;50.780;6.084;2023-01-31T06:42:05;100319.59;;;2.77;100.00
9189;BME280;34313;50.780;6.084;2023-01-31T06:44:30;100320.47;;;2.79;100.00
9189;BME280;34313;50.780;6.084;2023-01-31T06:46:58;100304.09;;;2.68;100.00
9189;BME280;34313;50.780;6.084;2023-01-31T06:49:24;100326.59;;;2.72;100.00
9189;BME280;34313;50.780;6.084;2023-01-31T06:51:49;100327.44;;;2.75;100.00
9189;BME280;34313;50.780;6.084;2023-01-31T06:54:14;100330.75;;;2.88;100.00
9189;BME280;34313;50.780;6.084;2023-01-31T06:56:39;100328.13;;;2.90;100.00
9189;BME280;34313;50.780;6.084;2023-01-31T06:59:05;100320.22;;;2.94;100.00
9189;BME280;34313;50.780;6.084;2023-01-31T07:01:30;100333.94;;;3.09;100.00
9189;BME280;34313;50.780;6.084;2023-01-31T07:03:55;100333.78;;;3.19;100.00
9189;BME280;34313;50.780;6.084;2023-01-31T07:06:21;100336.25;;;3.27;100.00
9189;BME280;34313;50.780;6.084;2023-01-31T07:08:47;100325.78;;;3.32;100.00
9189;BME280;34313;50.780;6.084;2023-01-31T07:11:12;100339.59;;;3.38;100.00
9189;BME280;34313;50.780;6.084;2023-01-31T07:13:37;100340.38;;;3.42;100.00
9189;BME280;34313;50.780;6.084;2023-01-31T07:16:03;100341.78;;;3.65;100.00
9189;BME280;34313;50.780;6.084;2023-01-31T07:18:28;100351.13;;;3.76;100.00
9189;BME280;34313;50.780;6.084;2023-01-31T07:20:53;100345.78;;;3.86;99.13
9189;BME280;34313;50.780;6.084;2023-01-31T07:23:19;100354.41;;;3.88;98.51
9189;BME280;34313;50.780;6.084;2023-01-31T07:25:44;100345.66;;;3.92;98.10
9189;BME280;34313;50.780;6.084;2023-01-31T07:28:10;100352.47;;;3.99;97.81
9189;BME280;34313;50.780;6.084;2023-01-31T07:30:36;100368.00;;;4.07;96.79
9189;BME280;34313;50.780;6.084;2023-01-31T07:33:01;100367.88;;;4.14;96.96
9189;BME280;34313;50.780;6.084;2023-01-31T07:35:27;100354.81;;;4.14;96.62
9189;BME280;34313;50.780;6.084;2023-01-31T07:37:53;100346.78;;;4.25;96.39
9189;BME280;34313;50.780;6.084;2023-01-31T07:40:18;100340.75;;;4.23;96.35
9189;BME280;34313;50.780;6.084;2023-01-31T07:42:44;100346.63;;;4.33;95.66
9189;BME280;34313;50.780;6.084;2023-01-31T07:45:11;100353.41;;;4.43;95.49
9189;BME280;34313;50.780;6.084;2023-01-31T07:47:37;100338.63;;;4.44;95.55
9189;BME280;34313;50.780;6.084;2023-01-31T07:50:03;100336.69;;;4.52;94.81
9189;BME280;34313;50.780;6.084;2023-01-31T07:52:28;100327.16;;;4.51;94.65
9189;BME280;34313;50.780;6.084;2023-01-31T07:54:53;100339.22;;;4.57;95.19
9189;BME280;34313;50.780;6.084;2023-01-31T07:57:19;100337.44;;;4.59;94.84
9189;BME280;34313;50.780;6.084;2023-01-31T07:59:44;100338.22;;;4.62;94.93
9189;BME280;34313;50.780;6.084;2023-01-31T08:02:14;100318.31;;;4.58;95.63
9189;BME280;34313;50.780;6.084;2023-01-31T08:04:58;100319.13;;;4.60;96.12
9189;BME280;34313;50.780;6.084;2023-01-31T08:07:25;100327.69;;;4.68;96.25
9189;BME280;34313;50.780;6.084;2023-01-31T08:09:51;100328.56;;;4.67;96.56
9189;BME280;34313;50.780;6.084;2023-01-31T08:12:16;100331.00;;;4.75;95.98
9189;BME280;34313;50.780;6.084;2023-01-31T08:14:42;100326.47;;;4.83;95.71
9189;BME280;34313;50.780;6.084;2023-01-31T08:17:07;100315.09;;;4.87;95.57
9189;BME280;34313;50.780;6.084;2023-01-31T08:19:33;100315.69;;;4.99;94.98
9189;BME280;34313;50.780;6.084;2023-01-31T08:22:00;100308.41;;;5.13;94.63
9189;BME280;34313;50.780;6.084;2023-01-31T08:24:26;100302.84;;;5.27;94.26
9189;BME280;34313;50.780;6.084;2023-01-31T08:26:51;100296.59;;;5.34;93.11
9189;BME280;34313;50.780;6.084;2023-01-31T08:29:16;100305.03;;;5.45;92.90
9189;BME280;34313;50.780;6.084;2023-01-31T08:31:42;100300.16;;;5.32;93.13
9189;BME280;34313;50.780;6.084;2023-01-31T08:34:07;100298.34;;;5.34;92.93
9189;BME280;34313;50.780;6.084;2023-01-31T08:36:33;100314.72;;;5.42;92.46
9189;BME280;34313;50.780;6.084;2023-01-31T08:39:01;100306.03;;;5.40;93.21
9189;BME280;34313;50.780;6.084;2023-01-31T08:41:27;100294.19;;;5.25;93.41
9189;BME280;34313;50.780;6.084;2023-01-31T08:43:53;100286.25;;;5.29;93.22
9189;BME280;34313;50.780;6.084;2023-01-31T08:46:20;100289.00;;;5.23;93.19
9189;BME280;34313;50.780;6.084;2023-01-31T08:48:46;100300.00;;;5.36;93.32
9189;BME280;34313;50.780;6.084;2023-01-31T08:51:12;100299.09;;;5.39;92.87
9189;BME280;34313;50.780;6.084;2023-01-31T08:53:39;100303.84;;;5.57;92.08
9189;BME280;34313;50.780;6.084;2023-01-31T08:56:06;100283.78;;;5.59;92.09
9189;BME280;34313;50.780;6.084;2023-01-31T08:58:33;100295.00;;;5.99;90.68
9189;BME280;34313;50.780;6.084;2023-01-31T09:01:02;100288.38;;;6.17;89.27
9189;BME280;34313;50.780;6.084;2023-01-31T09:03:28;100276.75;;;6.27;88.42
9189;BME280;34313;50.780;6.084;2023-01-31T09:05:53;100291.66;;;6.25;88.89
9189;BME280;34313;50.780;6.084;2023-01-31T09:08:18;100290.84;;;6.23;88.73
9189;BME280;34313;50.780;6.084;2023-01-31T09:10:50;100305.13;;;6.11;88.76
9189;BME280;34313;50.780;6.084;2023-01-31T09:13:16;100288.72;;;6.04;89.13
9189;BME280;34313;50.780;6.084;2023-01-31T09:15:41;100289.50;;;6.08;89.50
9189;BME280;34313;50.780;6.084;2023-01-31T09:18:06;100282.16;;;5.88;90.08
9189;BME280;34313;50.780;6.084;2023-01-31T09:20:32;100277.59;;;5.98;90.14
9189;BME280;34313;50.780;6.084;2023-01-31T09:22:57;100264.56;;;6.28;88.96
9189;BME280;34313;50.780;6.084;2023-01-31T09:25:22;100264.72;;;6.21;88.68
9189;BME280;34313;50.780;6.084;2023-01-31T09:27:51;100237.88;;;6.13;88.74
9189;BME280;34313;50.780;6.084;2023-01-31T09:30:16;100261.09;;;6.25;89.43
9189;BME280;34313;50.780;6.084;2023-01-31T09:32:42;100263.38;;;6.38;88.97
9189;BME280;34313;50.780;6.084;2023-01-31T09:35:08;100268.53;;;6.41;89.50
9189;BME280;34313;50.780;6.084;2023-01-31T09:37:34;100256.13;;;6.48;89.20
9189;BME280;34313;50.780;6.084;2023-01-31T09:39:59;100246.94;;;6.62;88.71
9189;BME280;34313;50.780;6.084;2023-01-31T09:42:35;100247.56;;;6.71;88.26
9189;BME280;34313;50.780;6.084;2023-01-31T09:45:06;100250.19;;;6.99;87.75
9189;BME280;34313;50.780;6.084;2023-01-31T09:47:38;100254.25;;;7.36;86.34
9189;BME280;34313;50.780;6.084;2023-01-31T09:50:17;100255.16;;;7.62;84.90
9189;BME280;34313;50.780;6.084;2023-01-31T09:52:44;100249.78;;;7.65;83.94
9189;BME280;34313;50.780;6.084;2023-01-31T09:55:18;100261.16;;;7.65;84.38
9189;BME280;34313;50.780;6.084;2023-01-31T09:57:54;100251.91;;;7.53;83.84
9189;BME280;34313;50.780;6.084;2023-01-31T10:00:27;100242.59;;;7.71;83.62
9189;BME280;34313;50.780;6.084;2023-01-31T10:05:38;100244.53;;;7.90;82.28
9189;BME280;34313;50.780;6.084;2023-01-31T10:10:57;100212.63;;;7.77;82.56
9189;BME280;34313;50.780;6.084;2023-01-31T10:13:27;100234.94;;;7.38;84.30
9189;BME280;34313;50.780;6.084;2023-01-31T10:18:31;100236.19;;;7.27;85.48
9189;BME280;34313;50.780;6.084;2023-01-31T10:21:17;100234.19;;;7.35;85.43
9189;BME280;34313;50.780;6.084;2023-01-31T10:23:48;100238.72;;;7.30;85.74
9189;BME280;34313;50.780;6.084;2023-01-31T10:26:15;100230.56;;;7.12;86.75
9189;BME280;34313;50.780;6.084;2023-01-31T10:28:52;100239.06;;;7.19;86.37
9189;BME280;34313;50.780;6.084;2023-01-31T10:31:29;100221.44;;;7.24;86.36
9189;BME280;34313;50.780;6.084;2023-01-31T10:34:14;100223.56;;;7.38;85.58
9189;BME280;34313;50.780;6.084;2023-01-31T10:37:05;100208.53;;;7.43;85.68
9189;BME280;34313;50.780;6.084;2023-01-31T10:39:41;100205.78;;;7.21;86.04
9189;BME280;34313;50.780;6.084;2023-01-31T10:44:52;100199.75;;;7.19;86.42
9189;BME280;34313;50.780;6.084;2023-01-31T10:47:20;100207.91;;;7.62;85.89
9189;BME280;34313;50.780;6.084;2023-01-31T10:49:48;100217.38;;;7.66;85.38
9189;BME280;34313;50.780;6.084;2023-01-31T10:52:52;100213.06;;;7.38;87.38
9189;BME280;34313;50.780;6.084;2023-01-31T10:57:43;100187.28;;;7.76;88.68
9189;BME280;34313;50.780;6.084;2023-01-31T11:00:28;100166.03;;;7.84;88.42
9189;BME280;34313;50.780;6.084;2023-01-31T11:02:56;100172.78;;;7.91;87.99
9189;BME280;34313;50.780;6.084;2023-01-31T11:05:23;100166.72;;;8.12;87.96
9189;BME280;34313;50.780;6.084;2023-01-31T11:07:49;100169.47;;;8.33;87.59
9189;BME280;34313;50.780;6.084;2023-01-31T11:10:29;100165.09;;;8.32;87.74
9189;BME280;34313;50.780;6.084;2023-01-31T11:13:00;100151.13;;;8.08;87.93
9189;BME280;34313;50.780;6.084;2023-01-31T11:15:34;100142.28;;;7.87;89.01
9189;BME280;34313;50.780;6.084;2023-01-31T11:18:00;100153.69;;;7.62;90.87
9189;BME280;34313;50.780;6.084;2023-01-31T11:20:29;100132.91;;;7.56;91.54
9189;BME280;34313;50.780;6.084;2023-01-31T11:22:56;100136.06;;;7.66;91.80
9189;BME280;34313;50.780;6.084;2023-01-31T11:25:24;100127.63;;;7.57;91.99
9189;BME280;34313;50.780;6.084;2023-01-31T11:27:56;100141.50;;;7.61;92.77
9189;BME280;34313;50.780;6.084;2023-01-31T11:30:37;100124.59;;;7.68;93.20
9189;BME280;34313;50.780;6.084;2023-01-31T11:33:05;100116.22;;;7.82;92.52
9189;BME280;34313;50.780;6.084;2023-01-31T11:35:32;100099.84;;;7.75;92.06
9189;BME280;34313;50.780;6.084;2023-01-31T11:38:19;100105.91;;;8.01;90.80
9189;BME280;34313;50.780;6.084;2023-01-31T11:40:46;100105.00;;;7.79;91.13
9189;BME280;34313;50.780;6.084;2023-01-31T11:45:45;100097.09;;;8.02;90.26
9189;BME280;34313;50.780;6.084;2023-01-31T11:50:39;100105.69;;;7.84;90.82
9189;BME280;34313;50.780;6.084;2023-01-31T11:53:16;100119.69;;;7.59;90.93
9189;BME280;34313;50.780;6.084;2023-01-31T11:55:43;100109.53;;;7.50;91.83
9189;BME280;34313;50.780;6.084;2023-01-31T11:58:21;100097.94;;;7.32;93.13
9189;BME280;34313;50.780;6.084;2023-01-31T12:01:12;100097.28;;;7.25;93.68
9189;BME280;34313;50.780;6.084;2023-01-31T12:03:39;100103.22;;;7.05;94.68
9189;BME280;34313;50.780;6.084;2023-01-31T12:06:31;100091.09;;;7.28;94.50
9189;BME280;34313;50.780;6.084;2023-01-31T12:08:57;100069.28;;;7.51;93.49
9189;BME280;34313;50.780;6.084;2023-01-31T12:13:59;100074.94;;;7.87;91.73
9189;BME280;34313;50.780;6.084;2023-01-31T12:16:26;100082.56;;;7.70;92.11
9189;BME280;34313;50.780;6.084;2023-01-31T12:40:39;100068.94;;;7.60;94.75
9189;BME280;34313;50.780;6.084;2023-01-31T12:46:07;100075.66;;;7.18;97.03
9189;BME280;34313;50.780;6.084;2023-01-31T12:56:55;100076.41;;;7.22;98.16
9189;BME280;34313;50.780;6.084;2023-01-31T12:59:46;100078.03;;;7.26;97.69
9189;BME280;34313;50.780;6.084;2023-01-31T13:02:29;100072.84;;;7.25;97.55
9189;BME280;34313;50.780;6.084;2023-01-31T13:10:47;100086.00;;;7.47;97.33
9189;BME280;34313;50.780;6.084;2023-01-31T13:13:21;100065.03;;;7.47;97.53
9189;BME280;34313;50.780;6.084;2023-01-31T13:15:53;100055.56;;;7.43;97.23
9189;BME280;34313;50.780;6.084;2023-01-31T13:18:21;100058.94;;;7.46;97.49
9189;BME280;34313;50.780;6.084;2023-01-31T13:20:57;100058.09;;;7.46;97.58
9189;BME280;34313;50.780;6.084;2023-01-31T13:23:32;100056.50;;;7.42;97.78
9189;BME280;34313;50.780;6.084;2023-01-31T13:26:23;100065.13;;;7.45;97.78
9189;BME280;34313;50.780;6.084;2023-01-31T13:31:58;100064.63;;;7.34;98.65
9189;BME280;34313;50.780;6.084;2023-01-31T13:34:33;100058.97;;;7.21;99.32
9189;BME280;34313;50.780;6.084;2023-01-31T13:37:04;100072.56;;;7.32;99.23
9189;BME280;34313;50.780;6.084;2023-01-31T13:39:38;100064.00;;;7.27;99.54
9189;BME280;34313;50.780;6.084;2023-01-31T13:42:03;100071.34;;;7.17;100.00
9189;BME280;34313;50.780;6.084;2023-01-31T13:44:29;100062.22;;;7.03;100.00
9189;BME280;34313;50.780;6.084;2023-01-31T13:46:56;100072.56;;;7.07;100.00
9189;BME280;34313;50.780;6.084;2023-01-31T13:49:26;100058.88;;;6.99;100.00
9189;BME280;34313;50.780;6.084;2023-01-31T13:51:58;100065.44;;;7.11;100.00
9189;BME280;34313;50.780;6.084;2023-01-31T13:54:31;100072.47;;;7.10;100.00
9189;BME280;34313;50.780;6.084;2023-01-31T13:56:58;100066.19;;;7.14;100.00
9189;BME280;34313;50.780;6.084;2023-01-31T13:59:26;100054.81;;;7.15;100.00
9189;BME280;34313;50.780;6.084;2023-01-31T14:01:54;100053.50;;;7.27;100.00
9189;BME280;34313;50.780;6.084;2023-01-31T14:04:27;100051.91;;;7.23;100.00
9189;BME280;34313;50.780;6.084;2023-01-31T14:06:53;100052.81;;;7.22;100.00
9189;BME280;34313;50.780;6.084;2023-01-31T14:11:59;100056.75;;;7.10;100.00
9189;BME280;34313;50.780;6.084;2023-01-31T14:22:17;100071.16;;;6.97;100.00
9189;BME280;34313;50.780;6.084;2023-01-31T14:27:17;100070.69;;;6.86;100.00
9189;BME280;34313;50.780;6.084;2023-01-31T14:29:44;100083.03;;;6.82;100.00
9189;BME280;34313;50.780;6.084;2023-01-31T14:32:33;100084.97;;;6.77;100.00
9189;BME280;34313;50.780;6.084;2023-01-31T14:40:47;100078.31;;;6.67;100.00
9189;BME280;34313;50.780;6.084;2023-01-31T14:59:27;100064.63;;;6.84;100.00
9189;BME280;34313;50.780;6.084;2023-01-31T15:01:55;100072.84;;;6.73;100.00
9189;BME280;34313;50.780;6.084;2023-01-31T15:04:23;100077.91;;;6.79;100.00
9189;BME280;34313;50.780;6.084;2023-01-31T15:06:51;100077.81;;;6.82;100.00
9189;BME280;34313;50.780;6.084;2023-01-31T15:09:27;100087.44;;;6.80;100.00
9189;BME280;34313;50.780;6.084;2023-01-31T15:11:59;100070.19;;;6.74;100.00
9189;BME280;34313;50.780;6.084;2023-01-31T15:17:00;100076.00;;;6.57;100.00
9189;BME280;34313;50.780;6.084;2023-01-31T15:19:33;100082.88;;;6.60;100.00
9189;BME280;34313;50.780;6.084;2023-01-31T15:22:12;100087.22;;;6.61;100.00
9189;BME280;34313;50.780;6.084;2023-01-31T15:24:46;100077.78;;;6.55;100.00
9189;BME280;34313;50.780;6.084;2023-01-31T15:27:20;100086.59;;;6.53;100.00
9189;BME280;34313;50.780;6.084;2023-01-31T15:30:06;100074.31;;;6.55;100.00
9189;BME280;34313;50.780;6.084;2023-01-31T15:32:52;100096.06;;;6.57;100.00